Time;durP1;ratioP1;P1;durP2;ratioP2;P2;SDS_P1;SDS_P2;PMS_P1;PMS_P2;Temp;Humidity;BMP_temperature;BMP_pressure;BME280_temperature;BME280_humidity;BME280_pressure;Samples;Min_cycle;Max_cycle;Signal;HPM_P1;HPM_P2
2020/12/30 00:00:15;;;;;;;2.70;0.50;;;15.50;51.70;;;;;;4921562;29;20380;-78
2020/12/30 00:02:41;;;;;;;2.38;0.60;;;15.50;51.80;;;;;;4905935;29;20110;-78
2020/12/30 00:05:09;;;;;;;2.28;0.68;;;15.50;51.80;;;;;;4902491;29;20045;-77
2020/12/30 00:07:37;;;;;;;1.08;0.40;;;15.50;51.80;;;;;;4918644;29;20048;-78
2020/12/30 00:10:13;;;;;;;1.83;0.40;;;15.50;51.90;;;;;;4921299;29;20047;-79
2020/12/30 00:12:39;;;;;;;0.70;0.30;;;15.50;51.90;;;;;;4921197;29;20048;-79
2020/12/30 00:15:06;;;;;;;0.73;0.30;;;15.50;51.90;;;;;;4920964;29;20040;-76
2020/12/30 00:17:32;;;;;;;1.45;0.40;;;15.50;52.00;;;;;;4918820;29;20107;-76
2020/12/30 00:19:58;;;;;;;1.05;0.35;;;15.50;51.90;;;;;;4921679;29;20060;-77
2020/12/30 00:22:24;;;;;;;1.27;0.30;;;15.50;52.00;;;;;;4905245;29;20080;-77
2020/12/30 00:24:50;;;;;;;2.25;0.55;;;15.50;52.00;;;;;;4901861;29;20049;-78
2020/12/30 00:27:16;;;;;;;1.10;0.30;;;15.50;52.00;;;;;;4902845;29;20449;-78
2020/12/30 00:29:43;;;;;;;0.73;0.32;;;15.50;52.00;;;;;;4902594;29;20053;-77
2020/12/30 00:32:10;;;;;;;1.13;0.65;;;15.50;52.10;;;;;;4902049;29;20108;-78
2020/12/30 00:34:37;;;;;;;1.52;0.50;;;15.50;52.20;;;;;;4901692;29;20055;-79
2020/12/30 00:37:03;;;;;;;1.60;0.50;;;15.50;52.10;;;;;;4909992;29;20118;-78
2020/12/30 00:39:29;;;;;;;1.30;0.63;;;15.50;52.20;;;;;;4918758;29;20091;-79
2020/12/30 00:41:56;;;;;;;0.98;0.35;;;15.50;52.30;;;;;;4911151;29;20064;-78
2020/12/30 00:44:23;;;;;;;1.85;0.52;;;15.50;52.30;;;;;;4901846;29;20056;-78
2020/12/30 00:46:55;;;;;;;1.20;0.50;;;15.50;52.30;;;;;;4907481;29;20360;-77
2020/12/30 00:49:22;;;;;;;1.17;0.38;;;15.50;52.30;;;;;;4920752;29;20440;-76
2020/12/30 00:51:57;;;;;;;1.08;0.50;;;15.50;52.30;;;;;;4918778;29;20044;-79
2020/12/30 00:54:23;;;;;;;1.60;0.70;;;15.50;52.30;;;;;;4920195;29;20079;-78
2020/12/30 00:56:50;;;;;;;2.72;0.77;;;15.50;52.20;;;;;;4913309;29;20354;-78
2020/12/30 00:59:20;;;;;;;1.63;0.80;;;15.50;52.20;;;;;;4901608;29;20132;-77
2020/12/30 01:01:52;;;;;;;2.20;0.60;;;15.50;52.30;;;;;;4901207;29;20064;-78
2020/12/30 01:04:20;;;;;;;3.50;0.98;;;15.40;52.10;;;;;;4894107;29;20071;-78
2020/12/30 01:06:53;;;;;;;2.22;1.00;;;15.40;52.10;;;;;;4911793;29;20131;-79
2020/12/30 01:09:19;;;;;;;;;;;15.50;52.20;;;;;;4882784;29;20404;-79
2020/12/30 01:11:45;;;;;;;2.25;1.05;;;15.40;52.20;;;;;;4882649;29;19935;-77
2020/12/30 01:14:11;;;;;;;2.67;0.80;;;15.40;52.30;;;;;;4882133;29;20068;-78
2020/12/30 01:16:37;;;;;;;2.92;1.58;;;15.40;52.80;;;;;;4890532;29;20048;-79
2020/12/30 01:19:06;;;;;;;2.20;1.35;;;15.40;52.20;;;;;;4906902;29;20059;-78
2020/12/30 01:21:38;;;;;;;1.33;1.20;;;15.40;52.20;;;;;;4919109;29;20058;-77
2020/12/30 01:24:04;;;;;;;2.22;1.38;;;15.40;52.20;;;;;;4920163;29;20052;-77
2020/12/30 01:26:29;;;;;;;2.15;1.13;;;15.40;52.20;;;;;;4919268;29;20533;-78
2020/12/30 01:28:55;;;;;;;2.17;1.67;;;15.40;52.10;;;;;;4917950;29;20080;-76
2020/12/30 01:31:32;;;;;;;2.75;1.27;;;15.40;52.20;;;;;;4920146;29;20075;-78
2020/12/30 01:33:59;;;;;;;2.58;1.48;;;15.40;52.20;;;;;;4917620;29;20055;-79
2020/12/30 01:36:25;;;;;;;2.75;1.45;;;15.40;52.20;;;;;;4905053;29;20052;-80
2020/12/30 01:38:52;;;;;;;2.42;1.13;;;15.40;52.10;;;;;;4918569;29;20465;-76
2020/12/30 01:41:19;;;;;;;1.77;1.27;;;15.40;52.20;;;;;;4915557;29;20491;-78
2020/12/30 01:44:04;;;;;;;2.30;1.17;;;15.40;52.10;;;;;;4901085;29;20055;-77
2020/12/30 01:46:47;;;;;;;4.35;1.30;;;15.40;52.10;;;;;;4905815;29;20077;-77
2020/12/30 01:49:19;;;;;;;3.35;1.55;;;15.40;52.10;;;;;;4919757;29;20059;-79
2020/12/30 01:51:45;;;;;;;2.22;1.13;;;15.40;52.10;;;;;;4920150;29;20056;-78
2020/12/30 01:54:12;;;;;;;3.00;1.27;;;15.40;52.10;;;;;;4904415;29;20049;-78
2020/12/30 01:56:40;;;;;;;1.48;0.70;;;15.40;52.00;;;;;;4906089;29;20062;-77
2020/12/30 01:59:08;;;;;;;2.15;0.90;;;15.40;52.00;;;;;;4919171;29;20500;-78
2020/12/30 02:01:41;;;;;;;2.17;0.80;;;15.40;52.00;;;;;;4919067;29;20055;-78
2020/12/30 02:04:10;;;;;;;2.55;0.85;;;15.40;52.00;;;;;;4919346;29;20367;-77
2020/12/30 02:06:36;;;;;;;1.65;0.88;;;15.40;52.10;;;;;;4905682;29;20108;-77
2020/12/30 02:09:04;;;;;;;1.40;0.63;;;15.40;52.10;;;;;;4900592;29;20076;-77
2020/12/30 02:11:31;;;;;;;1.55;0.63;;;15.40;52.00;;;;;;4899937;29;20099;-77
2020/12/30 02:14:05;;;;;;;1.42;0.50;;;15.40;52.00;;;;;;4899921;29;20056;-77
2020/12/30 02:16:32;;;;;;;1.17;0.63;;;15.40;52.00;;;;;;4901096;29;20145;-81
2020/12/30 02:18:59;;;;;;;1.73;0.70;;;15.40;52.00;;;;;;4900823;29;20049;-77
2020/12/30 02:21:25;;;;;;;1.75;0.63;;;15.40;52.00;;;;;;4899776;29;20049;-76
2020/12/30 02:23:54;;;;;;;1.40;0.60;;;15.40;51.90;;;;;;4900052;29;20045;-78
2020/12/30 02:26:20;;;;;;;1.48;0.57;;;15.40;51.90;;;;;;4900124;29;20044;-78
2020/12/30 02:28:45;;;;;;;0.93;0.47;;;15.40;51.80;;;;;;4899211;29;20060;-78
2020/12/30 02:31:11;;;;;;;3.30;0.63;;;15.40;51.80;;;;;;4900250;29;20078;-78
2020/12/30 02:33:38;;;;;;;0.77;0.40;;;15.40;51.80;;;;;;4904624;29;20100;-80
2020/12/30 02:36:03;;;;;;;1.88;0.63;;;15.40;51.90;;;;;;4898244;29;20044;-79
2020/12/30 02:38:29;;;;;;;1.88;0.50;;;15.40;52.00;;;;;;4900315;29;20384;-79
2020/12/30 02:40:59;;;;;;;0.68;0.40;;;15.40;52.00;;;;;;4900793;29;20055;-79
2020/12/30 02:43:24;;;;;;;4.13;0.90;;;15.40;51.90;;;;;;4899781;29;20425;-77
2020/12/30 02:45:50;;;;;;;2.92;0.63;;;15.40;51.90;;;;;;4899310;29;20056;-79
2020/12/30 02:48:18;;;;;;;2.17;0.50;;;15.40;51.90;;;;;;4900941;29;20372;-78
2020/12/30 02:50:44;;;;;;;1.00;0.50;;;15.40;52.00;;;;;;4899843;29;20477;-80
2020/12/30 02:53:10;;;;;;;1.45;0.60;;;15.40;52.00;;;;;;4900711;29;20119;-78
2020/12/30 02:55:36;;;;;;;1.58;0.75;;;15.40;52.00;;;;;;4898843;29;20376;-78
2020/12/30 02:58:02;;;;;;;1.55;0.60;;;15.40;51.90;;;;;;4912743;29;20063;-78
2020/12/30 03:00:27;;;;;;;1.33;0.60;;;15.40;51.90;;;;;;4918842;29;20051;-77
2020/12/30 03:02:53;;;;;;;2.15;0.60;;;15.40;51.90;;;;;;4916709;29;20055;-78
2020/12/30 03:05:19;;;;;;;2.63;1.00;;;15.40;51.90;;;;;;4904922;29;20041;-78
2020/12/30 03:07:47;;;;;;;2.03;0.80;;;15.40;51.90;;;;;;4906061;29;20357;-77
2020/12/30 03:10:12;;;;;;;3.13;1.05;;;15.40;51.90;;;;;;4889719;29;20468;-79
2020/12/30 03:12:38;;;;;;;2.15;0.70;;;15.40;51.90;;;;;;4899421;29;20044;-81
2020/12/30 03:15:05;;;;;;;1.77;0.70;;;15.40;51.80;;;;;;4899631;29;20044;-77
2020/12/30 03:17:31;;;;;;;2.03;0.68;;;15.40;52.50;;;;;;4910610;29;20079;-78
2020/12/30 03:19:56;;;;;;;4.07;1.23;;;15.40;51.80;;;;;;4918680;29;20056;-78
2020/12/30 03:22:24;;;;;;;1.70;0.50;;;15.40;51.80;;;;;;4916817;29;20044;-77
2020/12/30 03:24:50;;;;;;;1.63;0.77;;;15.40;51.80;;;;;;4918340;29;20055;-76
2020/12/30 03:27:16;;;;;;;2.67;0.70;;;15.40;51.80;;;;;;4908797;29;20060;-79
2020/12/30 03:29:42;;;;;;;1.33;0.70;;;15.40;51.70;;;;;;4899883;29;20040;-75
2020/12/30 03:32:10;;;;;;;2.03;0.80;;;15.40;51.70;;;;;;4901485;29;20416;-78
2020/12/30 03:34:36;;;;;;;2.60;1.08;;;15.40;51.70;;;;;;4917291;29;20357;-78
2020/12/30 03:37:02;;;;;;;1.60;0.90;;;15.50;51.80;;;;;;4915025;29;20036;-77
2020/12/30 03:39:28;;;;;;;3.22;1.02;;;15.40;51.80;;;;;;4902686;29;20051;-79
2020/12/30 03:41:54;;;;;;;2.47;1.10;;;15.40;51.80;;;;;;4903359;29;20080;-77
2020/12/30 03:44:20;;;;;;;3.00;0.90;;;15.40;51.80;;;;;;4902785;29;20040;-76
2020/12/30 03:46:46;;;;;;;2.75;1.15;;;15.40;51.80;;;;;;4903908;29;20059;-78
2020/12/30 03:49:11;;;;;;;1.80;0.93;;;15.50;51.90;;;;;;4902964;29;20049;-77
2020/12/30 03:51:37;;;;;;;1.25;0.90;;;15.50;51.90;;;;;;4903436;29;20460;-77
2020/12/30 03:54:03;;;;;;;2.13;1.02;;;15.50;51.90;;;;;;4902666;29;20056;-79
2020/12/30 03:56:29;;;;;;;3.53;1.00;;;15.40;51.90;;;;;;4903402;29;20072;-77
2020/12/30 03:58:55;;;;;;;2.10;1.00;;;15.50;51.90;;;;;;4902775;29;20059;-79
2020/12/30 04:01:20;;;;;;;2.13;0.95;;;15.40;51.80;;;;;;4906645;29;20048;-78
2020/12/30 04:03:46;;;;;;;1.92;1.10;;;15.40;51.80;;;;;;4920797;29;20048;-77
2020/12/30 04:06:12;;;;;;;3.42;1.10;;;15.40;51.90;;;;;;4902397;29;20139;-78
2020/12/30 04:08:38;;;;;;;2.35;1.02;;;15.50;51.90;;;;;;4903526;29;20052;-79
2020/12/30 04:11:03;;;;;;;2.72;1.10;;;15.40;51.90;;;;;;4902282;29;20157;-77
2020/12/30 04:13:29;;;;;;;2.45;1.02;;;15.40;51.80;;;;;;4902237;29;20045;-78
2020/12/30 04:15:55;;;;;;;2.20;1.00;;;15.40;51.90;;;;;;4902563;29;20045;-78
2020/12/30 04:18:21;;;;;;;3.25;1.20;;;15.40;51.80;;;;;;4903338;29;20119;-77
2020/12/30 04:20:46;;;;;;;1.83;0.80;;;15.50;51.90;;;;;;4903122;29;20047;-78
2020/12/30 04:23:12;;;;;;;1.80;0.93;;;15.40;51.80;;;;;;4918740;29;20050;-77
2020/12/30 04:25:38;;;;;;;3.17;0.80;;;15.40;51.80;;;;;;4921367;29;20440;-80
2020/12/30 04:28:04;;;;;;;2.53;0.68;;;15.40;51.80;;;;;;4919096;29;20063;-78
2020/12/30 04:30:30;;;;;;;1.13;0.50;;;15.40;51.90;;;;;;4921013;29;20071;-80
2020/12/30 04:32:56;;;;;;;0.70;0.50;;;15.40;51.90;;;;;;4904462;29;20516;-80
2020/12/30 04:35:22;;;;;;;1.40;0.57;;;15.40;51.90;;;;;;4901846;29;20044;-77
2020/12/30 04:37:48;;;;;;;1.77;0.50;;;15.40;52.00;;;;;;4911031;29;20096;-77
2020/12/30 04:40:13;;;;;;;2.15;0.40;;;15.40;52.60;;;;;;4920520;29;20075;-78
2020/12/30 04:42:39;;;;;;;1.95;0.60;;;15.40;52.00;;;;;;4921088;29;20052;-77
2020/12/30 04:45:10;;;;;;;2.00;0.50;;;15.40;52.00;;;;;;4902092;29;20044;-77
2020/12/30 04:47:38;;;;;;;1.52;0.40;;;15.40;52.00;;;;;;4910759;29;20055;-79
2020/12/30 04:50:05;;;;;;;2.10;0.40;;;15.40;52.00;;;;;;4918357;29;20111;-77
2020/12/30 04:52:31;;;;;;;2.50;0.30;;;15.40;52.00;;;;;;4916019;29;20119;-77
2020/12/30 04:54:59;;;;;;;1.67;0.50;;;15.40;52.10;;;;;;4900614;29;20044;-76
2020/12/30 04:57:57;;;;;;;0.80;0.20;;;15.40;52.00;;;;;;4909327;29;20337;-77
2020/12/30 05:00:25;;;;;;;1.73;0.55;;;15.40;52.00;;;;;;4921052;29;20046;-78
2020/12/30 05:02:53;;;;;;;0.82;0.45;;;15.40;52.00;;;;;;4907809;29;20341;-78
2020/12/30 05:05:20;;;;;;;1.25;0.30;;;15.30;52.00;;;;;;4901022;29;20036;-77
2020/12/30 05:07:46;;;;;;;1.00;0.60;;;15.40;52.00;;;;;;4919663;29;20064;-78
2020/12/30 05:10:15;;;;;;;1.60;0.40;;;15.40;52.10;;;;;;4920446;29;20051;-77
2020/12/30 05:12:43;;;;;;;0.68;0.20;;;15.30;52.00;;;;;;4920365;29;20439;-77
2020/12/30 05:15:09;;;;;;;0.70;0.20;;;15.40;52.00;;;;;;4918184;29;20032;-80
2020/12/30 05:17:35;;;;;;;1.40;0.20;;;15.30;51.90;;;;;;4910886;29;20048;-76
2020/12/30 05:20:00;;;;;;;1.27;0.40;;;15.30;51.90;;;;;;4901222;29;20063;-78
2020/12/30 05:22:26;;;;;;;0.85;0.32;;;15.30;51.90;;;;;;4901133;29;20127;-77
2020/12/30 05:24:52;;;;;;;0.68;0.15;;;15.40;51.90;;;;;;4901211;29;20077;-78
2020/12/30 05:27:19;;;;;;;1.10;0.25;;;15.30;51.90;;;;;;4908209;29;20055;-79
2020/12/30 05:29:52;;;;;;;1.08;0.20;;;15.40;52.00;;;;;;4919183;29;20048;-77
2020/12/30 05:32:18;;;;;;;1.35;0.20;;;15.40;52.00;;;;;;4914236;29;20055;-76
2020/12/30 05:34:44;;;;;;;1.55;0.38;;;15.30;52.00;;;;;;4912577;29;20048;-78
2020/12/30 05:37:12;;;;;;;1.50;0.30;;;15.30;52.00;;;;;;4918938;29;20044;-78
2020/12/30 05:39:40;;;;;;;1.10;0.30;;;15.40;52.00;;;;;;4904445;29;20428;-77
2020/12/30 05:42:19;;;;;;;1.13;0.40;;;15.40;52.00;;;;;;4909818;29;20047;-77
2020/12/30 05:44:48;;;;;;;1.10;0.20;;;15.40;52.00;;;;;;4919850;29;20060;-78
2020/12/30 05:47:22;;;;;;;2.05;0.40;;;15.30;52.00;;;;;;4920188;29;20052;-78
2020/12/30 05:49:52;;;;;;;2.67;0.30;;;15.40;52.10;;;;;;4902448;29;20132;-78
2020/12/30 05:52:19;;;;;;;1.17;0.20;;;15.30;52.10;;;;;;4900819;29;20492;-77
2020/12/30 05:54:51;;;;;;;1.30;0.20;;;15.30;52.10;;;;;;4901582;29;20044;-77
2020/12/30 05:57:31;;;;;;;1.95;0.30;;;15.30;52.10;;;;;;4900705;29;20056;-78
2020/12/30 06:00:06;;;;;;;3.15;0.25;;;15.30;52.20;;;;;;4911590;29;20041;-77
2020/12/30 06:02:32;;;;;;;2.53;0.28;;;15.30;52.30;;;;;;4918574;29;20044;-78
2020/12/30 06:05:15;;;;;;;1.75;0.22;;;15.40;52.60;;;;;;4917585;29;20448;-78
2020/12/30 06:07:51;;;;;;;2.08;0.30;;;15.40;52.50;;;;;;4905809;29;20589;-77
2020/12/30 06:10:28;;;;;;;2.85;0.28;;;15.50;52.60;;;;;;4902348;29;20037;-78
2020/12/30 06:12:59;;;;;;;5.63;0.50;;;15.50;52.70;;;;;;4908335;29;20445;-78
2020/12/30 06:15:26;;;;;;;7.63;0.50;;;15.60;52.90;;;;;;4900157;29;20047;-76
2020/12/30 06:18:01;;;;;;;13.68;1.10;;;15.70;53.10;;;;;;4903666;29;20059;-77
2020/12/30 06:20:36;;;;;;;5.85;0.38;;;15.90;53.20;;;;;;4917331;29;20476;-81
2020/12/30 06:23:13;;;;;;;10.40;0.60;;;16.00;53.40;;;;;;4919224;29;20044;-78
2020/12/30 06:25:44;;;;;;;9.43;0.75;;;16.10;53.70;;;;;;4919592;29;20108;-79
2020/12/30 06:28:34;;;;;;;7.32;0.73;;;16.20;53.70;;;;;;4912498;29;20060;-78
2020/12/30 06:31:11;;;;;;;4.80;0.32;;;16.40;54.20;;;;;;4903985;29;20422;-79
2020/12/30 06:33:40;;;;;;;7.18;0.93;;;16.40;54.30;;;;;;4889378;29;20044;-80
2020/12/30 06:36:06;;;;;;;8.80;0.75;;;16.50;54.20;;;;;;4898633;29;20120;-78
2020/12/30 06:38:32;;;;;;;6.50;0.68;;;16.50;54.20;;;;;;4890855;29;20103;-78
2020/12/30 06:41:00;;;;;;;10.50;0.70;;;16.60;54.40;;;;;;4899780;29;20076;-79
2020/12/30 06:43:46;;;;;;;8.95;0.57;;;16.60;54.50;;;;;;4900948;29;20061;-78
2020/12/30 06:46:22;;;;;;;8.25;0.60;;;16.70;54.60;;;;;;4900189;29;20338;-79
2020/12/30 06:48:58;;;;;;;5.40;0.30;;;16.80;54.60;;;;;;4909839;29;20048;-78
2020/12/30 06:51:27;;;;;;;5.07;0.70;;;16.80;54.80;;;;;;4902399;29;20051;-80
2020/12/30 06:53:53;;;;;;;1.98;0.20;;;16.80;54.70;;;;;;4889578;29;20068;-76
2020/12/30 06:56:38;;;;;;;5.80;0.38;;;16.90;54.80;;;;;;4900793;29;20100;-81
2020/12/30 06:59:07;;;;;;;3.25;0.70;;;17.00;55.00;;;;;;4911735;29;20040;-80
2020/12/30 07:02:02;;;;;;;5.45;0.45;;;17.10;54.80;;;;;;4918459;29;20044;-81
2020/12/30 07:04:34;;;;;;;2.30;0.30;;;17.20;55.00;;;;;;4897093;29;20071;-78
2020/12/30 07:07:00;;;;;;;4.57;0.30;;;17.20;54.80;;;;;;4910627;29;20052;-78
2020/12/30 07:09:32;;;;;;;2.38;0.30;;;17.30;54.70;;;;;;4900509;29;20056;-78
2020/12/30 07:12:16;;;;;;;3.95;0.40;;;17.30;54.70;;;;;;4901380;29;20508;-77
2020/12/30 07:14:42;;;;;;;3.85;0.50;;;17.40;54.90;;;;;;4905040;29;20055;-78
2020/12/30 07:17:08;;;;;;;1.88;0.20;;;17.40;54.70;;;;;;4920664;29;20512;-78
2020/12/30 07:19:35;;;;;;;1.45;0.40;;;17.50;54.70;;;;;;4887761;29;20040;-81
2020/12/30 07:22:10;;;;;;;2.90;0.30;;;17.60;54.60;;;;;;4905865;29;20115;-76
2020/12/30 07:24:46;;;;;;;13.27;1.42;;;17.50;54.50;;;;;;4911929;29;20044;-79
2020/12/30 07:27:14;;;;;;;5.90;0.32;;;17.60;54.90;;;;;;4905235;29;20055;-79
2020/12/30 07:29:41;;;;;;;3.28;0.45;;;17.60;54.80;;;;;;4913610;29;20083;-80
2020/12/30 07:32:08;;;;;;;8.38;0.50;;;17.60;54.70;;;;;;4913127;29;20044;-81
2020/12/30 07:34:39;;;;;;;9.75;0.47;;;17.70;54.80;;;;;;4903322;29;20365;-81
2020/12/30 07:37:05;;;;;;;11.55;0.60;;;17.70;54.60;;;;;;4904919;29;20040;-81
2020/12/30 07:39:40;;;;;;;3.95;0.40;;;17.70;54.40;;;;;;4902689;29;20093;-80
2020/12/30 07:42:08;;;;;;;6.03;0.88;;;17.70;54.20;;;;;;4906052;29;20376;-80
2020/12/30 07:44:34;;;;;;;4.45;0.43;;;17.70;54.00;;;;;;4904269;29;20063;-80
2020/12/30 07:47:05;;;;;;;3.60;0.80;;;17.70;53.90;;;;;;4919486;29;20051;-79
2020/12/30 07:49:32;;;;;;;7.55;0.80;;;17.60;53.70;;;;;;4907077;29;20056;-83
2020/12/30 07:52:00;;;;;;;2.60;0.43;;;17.60;53.60;;;;;;4916305;29;20056;-79
2020/12/30 07:54:27;;;;;;;4.13;0.30;;;17.60;53.60;;;;;;4914668;29;20055;-79
2020/12/30 07:57:10;;;;;;;3.85;0.30;;;17.60;53.50;;;;;;4909671;29;20123;-76
2020/12/30 07:59:38;;;;;;;1.75;0.40;;;17.50;53.40;;;;;;4907272;29;20356;-77
2020/12/30 08:02:11;;;;;;;2.35;0.40;;;17.50;53.40;;;;;;4916940;29;20115;-80
2020/12/30 08:04:38;;;;;;;3.90;0.40;;;17.50;53.40;;;;;;4914486;29;20354;-79
2020/12/30 08:07:06;;;;;;;7.40;0.85;;;17.50;53.40;;;;;;4903083;29;20056;-79
2020/12/30 08:09:34;;;;;;;2.45;0.30;;;17.50;53.40;;;;;;4917053;29;20127;-74
2020/12/30 08:12:05;;;;;;;4.82;0.38;;;17.50;54.00;;;;;;4902546;29;20092;-73
2020/12/30 08:14:36;;;;;;;4.72;0.47;;;17.50;53.40;;;;;;4901408;29;20052;-74
2020/12/30 08:17:11;;;;;;;5.50;0.43;;;17.50;53.20;;;;;;4911981;29;20401;-79
2020/12/30 08:19:45;;;;;;;5.70;0.30;;;17.50;53.70;;;;;;4911531;29;20078;-77
2020/12/30 08:22:26;;;;;;;6.25;0.40;;;17.50;53.20;;;;;;4885761;29;20036;-81
2020/12/30 08:24:54;;;;;;;4.30;0.60;;;17.50;53.10;;;;;;4884516;29;20177;-80
2020/12/30 08:27:24;;;;;;;9.00;0.40;;;17.50;53.20;;;;;;4901615;29;20071;-81
2020/12/30 08:29:50;;;;;;;4.80;0.57;;;17.60;53.40;;;;;;4870041;29;20128;-79
2020/12/30 08:32:32;;;;;;;6.15;0.50;;;17.60;53.50;;;;;;4901261;29;20081;-79
2020/12/30 08:35:10;;;;;;;6.80;0.65;;;17.60;53.40;;;;;;4893285;29;20043;-80
2020/12/30 08:37:39;;;;;;;8.20;0.75;;;17.70;53.40;;;;;;4886639;29;20037;-78
2020/12/30 08:40:28;;;;;;;6.53;1.35;;;17.70;53.40;;;;;;4897042;29;20040;-79
2020/12/30 08:43:13;;;;;;;5.40;0.30;;;17.70;53.30;;;;;;4914647;29;20376;-79
2020/12/30 08:45:51;;;;;;;2.90;0.50;;;17.70;53.40;;;;;;4894062;29;20554;-86
2020/12/30 08:48:21;;;;;;;5.10;0.50;;;17.70;53.30;;;;;;4870498;29;20052;-80
2020/12/30 08:50:52;;;;;;;9.77;0.38;;;17.60;53.40;;;;;;4900716;29;20045;-79
2020/12/30 08:53:39;;;;;;;7.68;0.30;;;17.60;53.30;;;;;;4901744;29;20115;-78
2020/12/30 08:56:07;;;;;;;7.65;0.52;;;17.70;53.30;;;;;;4901254;29;20047;-80
2020/12/30 08:58:36;;;;;;;6.80;0.35;;;17.70;53.30;;;;;;4899477;29;20044;-78
2020/12/30 09:01:19;;;;;;;6.25;0.70;;;17.70;53.10;;;;;;4902252;29;20048;-79
2020/12/30 09:03:45;;;;;;;5.93;0.40;;;17.80;53.10;;;;;;4897035;29;20124;-81
2020/12/30 09:06:30;;;;;;;7.03;0.50;;;17.80;53.10;;;;;;4900207;29;20537;-80
2020/12/30 09:09:14;;;;;;;7.38;0.57;;;17.80;53.10;;;;;;4896759;29;20060;-81
2020/12/30 09:11:48;;;;;;;4.72;0.40;;;17.90;53.00;;;;;;4920517;29;20061;-79
2020/12/30 09:14:17;;;;;;;;;;;17.90;52.90;;;;;;4920828;29;20052;-79
2020/12/30 09:17:10;;;;;;;5.97;0.45;;;17.90;52.90;;;;;;4887884;29;19931;-83
2020/12/30 09:19:36;;;;;;;5.32;0.30;;;17.90;52.80;;;;;;4901277;29;20368;-79
2020/12/30 09:22:10;;;;;;;4.80;0.45;;;17.90;52.80;;;;;;4920005;29;20036;-78
2020/12/30 09:24:43;;;;;;;3.30;0.30;;;18.00;52.80;;;;;;4902798;29;20456;-78
2020/12/30 09:27:35;;;;;;;4.97;0.40;;;18.10;52.80;;;;;;4900853;29;20083;-80
2020/12/30 09:30:22;;;;;;;4.20;0.30;;;18.10;52.80;;;;;;4901697;29;20147;-83
2020/12/30 09:32:58;;;;;;;3.53;0.30;;;18.20;52.80;;;;;;4896329;29;20504;-82
2020/12/30 09:35:37;;;;;;;7.35;0.40;;;18.20;52.70;;;;;;4881938;29;20091;-81
2020/12/30 09:38:08;;;;;;;5.68;0.45;;;18.30;52.70;;;;;;4902684;29;20183;-82
2020/12/30 09:40:45;;;;;;;7.70;0.43;;;18.30;52.70;;;;;;4900104;29;20048;-81
2020/12/30 09:43:19;;;;;;;6.47;0.30;;;18.30;52.70;;;;;;4899540;29;20084;-78
2020/12/30 09:45:47;;;;;;;5.07;1.02;;;18.30;52.70;;;;;;4899197;29;20044;-79
2020/12/30 09:48:19;;;;;;;6.65;0.77;;;18.30;52.80;;;;;;4908237;29;20055;-78
2020/12/30 09:50:50;;;;;;;4.93;0.30;;;18.20;52.80;;;;;;4887521;29;20048;-77
2020/12/30 09:53:16;;;;;;;4.63;0.30;;;18.20;52.90;;;;;;4903681;29;20457;-78
2020/12/30 09:55:46;;;;;;;9.18;0.75;;;18.10;52.90;;;;;;4900714;29;20072;-78
2020/12/30 09:58:12;;;;;;;3.67;0.30;;;18.10;53.00;;;;;;4910007;29;20071;-79
2020/12/30 10:00:39;;;;;;;6.70;0.70;;;18.00;53.10;;;;;;4908849;29;20376;-81
2020/12/30 10:03:05;;;;;;;3.53;0.40;;;18.00;53.20;;;;;;4901684;29;20068;-80
2020/12/30 10:05:31;;;;;;;3.55;0.32;;;18.00;53.30;;;;;;4883661;29;20040;-80
2020/12/30 10:07:57;;;;;;;3.92;0.35;;;18.00;53.40;;;;;;4892012;29;20473;-80
2020/12/30 10:10:23;;;;;;;3.58;0.57;;;18.00;53.40;;;;;;4899329;29;20111;-80
2020/12/30 10:12:52;;;;;;;3.72;0.30;;;18.00;53.50;;;;;;4883827;29;20063;-80
2020/12/30 10:15:21;;;;;;;7.40;0.45;;;18.00;53.50;;;;;;4892211;29;20349;-81
2020/12/30 10:17:47;;;;;;;8.27;0.63;;;18.00;53.50;;;;;;4908116;29;20396;-75
2020/12/30 10:20:13;;;;;;;10.35;0.85;;;18.00;53.50;;;;;;4913479;29;20044;-76
2020/12/30 10:22:41;;;;;;;18.95;1.02;;;18.00;53.60;;;;;;4912644;29;20074;-75
2020/12/30 10:25:12;;;;;;;17.80;1.58;;;18.00;53.70;;;;;;4916992;29;20475;-75
2020/12/30 10:27:38;;;;;;;9.70;1.25;;;17.90;53.60;;;;;;4919147;29;20048;-76
2020/12/30 10:30:06;;;;;;;9.15;1.45;;;17.90;53.60;;;;;;4914997;29;20058;-77
2020/12/30 10:32:32;;;;;;;8.98;0.77;;;17.80;53.60;;;;;;4915945;29;20048;-77
2020/12/30 10:34:57;;;;;;;11.98;0.70;;;17.80;53.60;;;;;;4917231;29;20482;-75
2020/12/30 10:37:23;;;;;;;10.75;0.70;;;17.70;53.50;;;;;;4918295;29;20052;-74
2020/12/30 10:39:49;;;;;;;14.75;1.58;;;17.70;53.50;;;;;;4918963;29;20519;-74
2020/12/30 10:42:17;;;;;;;7.00;0.85;;;17.70;53.60;;;;;;4917234;29;20106;-76
2020/12/30 10:44:44;;;;;;;6.13;0.60;;;17.60;53.50;;;;;;4916916;29;20127;-78
2020/12/30 10:47:10;;;;;;;8.98;0.55;;;17.60;53.50;;;;;;4912134;29;20047;-77
2020/12/30 10:49:36;;;;;;;8.52;0.70;;;17.50;53.40;;;;;;4921995;29;20063;-77
2020/12/30 10:52:02;;;;;;;7.28;0.93;;;17.50;53.40;;;;;;4922776;29;20094;-76
2020/12/30 10:54:28;;;;;;;4.20;0.50;;;17.50;53.40;;;;;;4918963;29;20048;-76
2020/12/30 10:56:54;;;;;;;5.85;0.50;;;17.40;53.40;;;;;;4923255;29;20128;-77
2020/12/30 10:59:21;;;;;;;3.83;0.40;;;17.40;53.40;;;;;;4921142;29;20476;-74
2020/12/30 11:01:51;;;;;;;3.38;0.40;;;17.40;53.50;;;;;;4918395;29;20115;-75
2020/12/30 11:04:17;;;;;;;2.47;0.35;;;17.30;53.40;;;;;;4921001;29;20040;-75
2020/12/30 11:06:43;;;;;;;3.40;0.50;;;17.30;53.50;;;;;;4921749;29;20400;-76
2020/12/30 11:09:09;;;;;;;1.88;0.40;;;17.30;53.50;;;;;;4919740;29;20119;-75
2020/12/30 11:11:35;;;;;;;2.55;0.40;;;17.20;54.10;;;;;;4920411;29;20051;-74
2020/12/30 11:14:02;;;;;;;2.05;0.35;;;17.20;53.50;;;;;;4922522;29;20055;-75
2020/12/30 11:16:28;;;;;;;2.83;0.50;;;17.20;53.50;;;;;;4915705;29;20072;-76
2020/12/30 11:18:54;;;;;;;5.70;0.82;;;17.10;53.50;;;;;;4921434;29;20115;-76
2020/12/30 11:21:19;;;;;;;2.42;0.47;;;17.10;53.50;;;;;;4921383;29;20048;-74
2020/12/30 11:23:46;;;;;;;2.90;0.40;;;17.10;53.60;;;;;;4922093;29;20119;-76
2020/12/30 11:26:12;;;;;;;1.35;0.30;;;17.00;53.60;;;;;;4920403;29;20493;-75
2020/12/30 11:28:40;;;;;;;1.92;0.43;;;17.00;53.60;;;;;;4922430;29;20071;-76
2020/12/30 11:31:07;;;;;;;2.13;0.40;;;17.00;53.70;;;;;;4919159;29;20040;-74
2020/12/30 11:33:33;;;;;;;2.97;0.30;;;17.00;53.80;;;;;;4922413;29;20048;-75
2020/12/30 11:35:59;;;;;;;2.03;0.40;;;16.90;53.70;;;;;;4920256;29;20055;-75
2020/12/30 11:38:25;;;;;;;3.22;0.60;;;16.90;53.70;;;;;;4922107;29;20078;-74
2020/12/30 11:40:51;;;;;;;2.85;0.50;;;16.90;53.70;;;;;;4920472;29;20044;-76
2020/12/30 11:43:17;;;;;;;2.75;0.50;;;16.90;53.70;;;;;;4921425;29;20199;-78
2020/12/30 11:45:43;;;;;;;1.33;0.40;;;16.90;53.70;;;;;;4920717;29;20071;-75
2020/12/30 11:48:10;;;;;;;1.77;0.35;;;16.80;53.70;;;;;;4921010;29;20044;-76
2020/12/30 11:50:36;;;;;;;1.98;0.38;;;16.80;53.70;;;;;;4920844;29;20048;-77
2020/12/30 11:53:02;;;;;;;1.85;0.50;;;16.80;53.70;;;;;;4921879;29;20048;-76
2020/12/30 11:55:28;;;;;;;2.80;0.60;;;16.80;53.70;;;;;;4918783;29;20048;-74
2020/12/30 11:57:54;;;;;;;1.05;0.32;;;16.80;53.80;;;;;;4921337;29;20059;-74
2020/12/30 12:00:21;;;;;;;3.45;0.60;;;16.70;53.80;;;;;;4918269;29;20052;-76
2020/12/30 12:02:47;;;;;;;4.25;0.77;;;16.70;53.80;;;;;;4917698;29;20055;-75
2020/12/30 12:05:14;;;;;;;1.38;0.40;;;16.60;53.70;;;;;;4921481;29;20463;-76
2020/12/30 12:07:40;;;;;;;1.35;0.38;;;16.60;53.70;;;;;;4917917;29;20052;-76
2020/12/30 12:10:08;;;;;;;2.13;0.40;;;16.60;53.70;;;;;;4921638;29;20044;-76
2020/12/30 12:12:35;;;;;;;0.90;0.20;;;16.60;53.80;;;;;;4918940;29;20507;-77
2020/12/30 12:15:02;;;;;;;1.75;0.40;;;16.60;53.80;;;;;;4916185;29;20391;-76
2020/12/30 12:17:28;;;;;;;2.05;0.38;;;16.60;53.90;;;;;;4919205;29;20131;-76
2020/12/30 12:19:54;;;;;;;1.58;0.75;;;16.50;53.90;;;;;;4920333;29;20056;-73
2020/12/30 12:22:20;;;;;;;1.55;0.43;;;16.50;53.90;;;;;;4921433;29;20344;-74
2020/12/30 12:24:45;;;;;;;5.03;0.47;;;16.50;53.90;;;;;;4911839;29;20036;-77
2020/12/30 12:27:11;;;;;;;9.10;0.93;;;16.50;53.70;;;;;;4907339;29;20071;-72
2020/12/30 12:29:42;;;;;;;9.23;0.65;;;16.40;53.50;;;;;;4901554;29;20048;-78
2020/12/30 12:32:13;;;;;;;9.55;0.80;;;16.50;53.70;;;;;;4899973;29;20111;-76
2020/12/30 12:34:41;;;;;;;10.82;0.80;;;16.40;53.80;;;;;;4913440;29;20456;-77
2020/12/30 12:37:08;;;;;;;10.23;0.80;;;16.40;54.00;;;;;;4906143;29;20127;-76
2020/12/30 12:39:38;;;;;;;9.50;0.85;;;16.40;54.10;;;;;;4899632;29;20055;-76
2020/12/30 12:42:04;;;;;;;9.15;0.80;;;16.50;54.30;;;;;;4909360;29;20063;-76
2020/12/30 12:44:31;;;;;;;6.50;0.57;;;16.50;54.40;;;;;;4904863;29;20115;-76
2020/12/30 12:46:57;;;;;;;6.93;0.80;;;16.40;54.50;;;;;;4908215;29;20044;-75
2020/12/30 12:49:24;;;;;;;10.80;0.60;;;16.40;54.60;;;;;;4912589;29;20051;-77
2020/12/30 12:51:54;;;;;;;8.18;0.93;;;16.50;54.70;;;;;;4905425;29;20044;-79
2020/12/30 12:54:20;;;;;;;5.32;0.65;;;16.50;54.80;;;;;;4919698;29;20051;-78
2020/12/30 12:56:46;;;;;;;7.45;1.10;;;16.60;54.80;;;;;;4906638;29;20053;-78